sensor_id;sensor_type;location;lat;lon;timestamp;P1;durP1;ratioP1;P2;durP2;ratioP2
17886;SDS011;9069;52.044;7.472;2022-11-20T00:01:27;11.70;;;6.73;;
17886;SDS011;9069;52.044;7.472;2022-11-20T00:03:55;11.50;;;7.27;;
17886;SDS011;9069;52.044;7.472;2022-11-20T00:06:24;10.87;;;6.73;;
17886;SDS011;9069;52.044;7.472;2022-11-20T00:08:53;12.33;;;6.43;;
17886;SDS011;9069;52.044;7.472;2022-11-20T00:11:22;10.50;;;6.80;;
17886;SDS011;9069;52.044;7.472;2022-11-20T00:13:51;13.90;;;7.18;;
17886;SDS011;9069;52.044;7.472;2022-11-20T00:16:21;13.93;;;7.40;;
17886;SDS011;9069;52.044;7.472;2022-11-20T00:18:49;11.83;;;6.70;;
17886;SDS011;9069;52.044;7.472;2022-11-20T00:21:17;12.68;;;6.65;;
17886;SDS011;9069;52.044;7.472;2022-11-20T00:23:47;10.07;;;6.20;;
17886;SDS011;9069;52.044;7.472;2022-11-20T00:26:15;14.73;;;7.40;;
17886;SDS011;9069;52.044;7.472;2022-11-20T00:28:43;12.83;;;6.90;;
17886;SDS011;9069;52.044;7.472;2022-11-20T00:31:15;12.60;;;6.83;;
17886;SDS011;9069;52.044;7.472;2022-11-20T00:33:42;13.80;;;6.80;;
17886;SDS011;9069;52.044;7.472;2022-11-20T00:36:11;13.40;;;7.30;;
17886;SDS011;9069;52.044;7.472;2022-11-20T00:38:52;16.27;;;7.93;;
17886;SDS011;9069;52.044;7.472;2022-11-20T00:41:19;12.40;;;7.13;;
17886;SDS011;9069;52.044;7.472;2022-11-20T00:43:47;11.68;;;7.20;;
17886;SDS011;9069;52.044;7.472;2022-11-20T00:46:17;11.27;;;6.60;;
17886;SDS011;9069;52.044;7.472;2022-11-20T00:48:46;10.47;;;6.23;;
17886;SDS011;9069;52.044;7.472;2022-11-20T00:51:14;11.03;;;7.23;;
17886;SDS011;9069;52.044;7.472;2022-11-20T00:53:42;11.10;;;6.60;;
17886;SDS011;9069;52.044;7.472;2022-11-20T00:56:10;12.93;;;7.27;;
17886;SDS011;9069;52.044;7.472;2022-11-20T00:58:42;10.07;;;6.53;;
17886;SDS011;9069;52.044;7.472;2022-11-20T01:01:12;12.07;;;6.80;;
17886;SDS011;9069;52.044;7.472;2022-11-20T01:03:47;12.77;;;7.47;;
17886;SDS011;9069;52.044;7.472;2022-11-20T01:08:44;13.23;;;7.57;;
17886;SDS011;9069;52.044;7.472;2022-11-20T01:11:12;14.70;;;7.93;;
17886;SDS011;9069;52.044;7.472;2022-11-20T01:13:50;13.30;;;7.40;;
17886;SDS011;9069;52.044;7.472;2022-11-20T01:16:19;15.53;;;8.87;;
17886;SDS011;9069;52.044;7.472;2022-11-20T01:18:49;16.10;;;8.67;;
17886;SDS011;9069;52.044;7.472;2022-11-20T01:21:21;13.30;;;7.50;;
17886;SDS011;9069;52.044;7.472;2022-11-20T01:23:53;12.97;;;7.93;;
17886;SDS011;9069;52.044;7.472;2022-11-20T01:26:23;13.87;;;7.70;;
17886;SDS011;9069;52.044;7.472;2022-11-20T01:28:51;15.00;;;7.87;;
17886;SDS011;9069;52.044;7.472;2022-11-20T01:31:23;17.60;;;7.77;;
17886;SDS011;9069;52.044;7.472;2022-11-20T01:33:55;13.77;;;8.07;;
17886;SDS011;9069;52.044;7.472;2022-11-20T01:36:24;15.93;;;7.73;;
17886;SDS011;9069;52.044;7.472;2022-11-20T01:38:53;17.67;;;8.03;;
17886;SDS011;9069;52.044;7.472;2022-11-20T01:41:21;14.67;;;7.40;;
17886;SDS011;9069;52.044;7.472;2022-11-20T01:44:08;15.02;;;7.95;;
17886;SDS011;9069;52.044;7.472;2022-11-20T01:46:38;15.60;;;7.90;;
17886;SDS011;9069;52.044;7.472;2022-11-20T01:54:11;14.00;;;7.33;;
17886;SDS011;9069;52.044;7.472;2022-11-20T01:56:42;15.07;;;8.07;;
17886;SDS011;9069;52.044;7.472;2022-11-20T01:59:12;17.00;;;8.03;;
17886;SDS011;9069;52.044;7.472;2022-11-20T02:01:41;14.77;;;7.10;;
17886;SDS011;9069;52.044;7.472;2022-11-20T02:04:08;16.00;;;7.40;;
17886;SDS011;9069;52.044;7.472;2022-11-20T02:06:38;13.60;;;7.40;;
17886;SDS011;9069;52.044;7.472;2022-11-20T02:09:10;15.03;;;7.87;;
17886;SDS011;9069;52.044;7.472;2022-11-20T02:11:37;17.43;;;7.97;;
17886;SDS011;9069;52.044;7.472;2022-11-20T02:14:04;12.13;;;7.27;;
17886;SDS011;9069;52.044;7.472;2022-11-20T02:16:33;13.10;;;6.87;;
17886;SDS011;9069;52.044;7.472;2022-11-20T02:19:03;15.40;;;7.77;;
17886;SDS011;9069;52.044;7.472;2022-11-20T02:21:38;12.83;;;7.77;;
17886;SDS011;9069;52.044;7.472;2022-11-20T02:24:12;12.43;;;7.17;;
17886;SDS011;9069;52.044;7.472;2022-11-20T02:26:41;13.43;;;7.07;;
17886;SDS011;9069;52.044;7.472;2022-11-20T02:29:26;14.07;;;7.10;;
17886;SDS011;9069;52.044;7.472;2022-11-20T02:31:58;13.43;;;7.63;;
17886;SDS011;9069;52.044;7.472;2022-11-20T02:34:27;15.00;;;7.07;;
17886;SDS011;9069;52.044;7.472;2022-11-20T02:36:55;13.90;;;7.77;;
17886;SDS011;9069;52.044;7.472;2022-11-20T02:39:24;13.87;;;7.40;;
17886;SDS011;9069;52.044;7.472;2022-11-20T02:41:53;14.73;;;8.07;;
17886;SDS011;9069;52.044;7.472;2022-11-20T02:44:21;12.80;;;7.33;;
17886;SDS011;9069;52.044;7.472;2022-11-20T02:46:48;16.57;;;8.37;;
17886;SDS011;9069;52.044;7.472;2022-11-20T02:49:15;12.60;;;7.17;;
17886;SDS011;9069;52.044;7.472;2022-11-20T02:51:43;11.37;;;6.53;;
17886;SDS011;9069;52.044;7.472;2022-11-20T02:54:09;13.30;;;7.13;;
17886;SDS011;9069;52.044;7.472;2022-11-20T02:56:37;13.60;;;7.10;;
17886;SDS011;9069;52.044;7.472;2022-11-20T02:59:04;13.03;;;7.50;;
17886;SDS011;9069;52.044;7.472;2022-11-20T03:01:31;13.83;;;7.40;;
17886;SDS011;9069;52.044;7.472;2022-11-20T03:03:58;15.93;;;8.13;;
17886;SDS011;9069;52.044;7.472;2022-11-20T03:06:25;12.33;;;7.77;;
17886;SDS011;9069;52.044;7.472;2022-11-20T03:08:51;17.53;;;7.80;;
17886;SDS011;9069;52.044;7.472;2022-11-20T03:11:18;13.13;;;7.53;;
17886;SDS011;9069;52.044;7.472;2022-11-20T03:13:45;14.57;;;8.00;;
17886;SDS011;9069;52.044;7.472;2022-11-20T03:16:15;18.57;;;8.23;;
17886;SDS011;9069;52.044;7.472;2022-11-20T03:18:44;20.80;;;9.37;;
17886;SDS011;9069;52.044;7.472;2022-11-20T03:21:11;17.47;;;9.10;;
17886;SDS011;9069;52.044;7.472;2022-11-20T03:23:40;19.83;;;9.03;;
17886;SDS011;9069;52.044;7.472;2022-11-20T03:26:17;22.20;;;10.17;;
17886;SDS011;9069;52.044;7.472;2022-11-20T03:28:49;25.40;;;9.80;;
17886;SDS011;9069;52.044;7.472;2022-11-20T03:31:18;17.50;;;9.27;;
17886;SDS011;9069;52.044;7.472;2022-11-20T03:33:46;22.57;;;10.03;;
17886;SDS011;9069;52.044;7.472;2022-11-20T03:36:14;22.33;;;10.47;;
17886;SDS011;9069;52.044;7.472;2022-11-20T03:38:42;21.10;;;10.17;;
17886;SDS011;9069;52.044;7.472;2022-11-20T03:41:14;19.37;;;9.57;;
17886;SDS011;9069;52.044;7.472;2022-11-20T03:43:49;20.53;;;9.10;;
17886;SDS011;9069;52.044;7.472;2022-11-20T03:46:16;17.00;;;8.47;;
17886;SDS011;9069;52.044;7.472;2022-11-20T03:48:43;19.97;;;9.37;;
17886;SDS011;9069;52.044;7.472;2022-11-20T03:51:17;17.00;;;8.30;;
17886;SDS011;9069;52.044;7.472;2022-11-20T03:53:45;17.13;;;8.17;;
17886;SDS011;9069;52.044;7.472;2022-11-20T03:56:14;16.20;;;8.87;;
17886;SDS011;9069;52.044;7.472;2022-11-20T03:58:42;15.97;;;8.67;;
17886;SDS011;9069;52.044;7.472;2022-11-20T04:03:41;14.87;;;8.43;;
17886;SDS011;9069;52.044;7.472;2022-11-20T04:06:13;15.17;;;8.70;;
17886;SDS011;9069;52.044;7.472;2022-11-20T04:08:41;17.13;;;8.70;;
17886;SDS011;9069;52.044;7.472;2022-11-20T04:13:38;18.90;;;9.20;;
17886;SDS011;9069;52.044;7.472;2022-11-20T04:16:06;22.73;;;10.70;;
17886;SDS011;9069;52.044;7.472;2022-11-20T04:18:33;22.47;;;9.97;;
17886;SDS011;9069;52.044;7.472;2022-11-20T04:21:01;22.60;;;10.07;;
17886;SDS011;9069;52.044;7.472;2022-11-20T04:23:28;19.47;;;9.73;;
17886;SDS011;9069;52.044;7.472;2022-11-20T04:26:00;19.87;;;9.57;;
17886;SDS011;9069;52.044;7.472;2022-11-20T04:28:34;20.53;;;9.67;;
17886;SDS011;9069;52.044;7.472;2022-11-20T04:31:02;17.47;;;8.83;;
17886;SDS011;9069;52.044;7.472;2022-11-20T04:33:33;16.90;;;9.27;;
17886;SDS011;9069;52.044;7.472;2022-11-20T04:36:02;15.37;;;8.50;;
17886;SDS011;9069;52.044;7.472;2022-11-20T04:38:30;16.57;;;8.77;;
17886;SDS011;9069;52.044;7.472;2022-11-20T04:41:01;18.33;;;10.00;;
17886;SDS011;9069;52.044;7.472;2022-11-20T04:43:29;18.27;;;8.53;;
17886;SDS011;9069;52.044;7.472;2022-11-20T04:45:56;18.17;;;9.60;;
17886;SDS011;9069;52.044;7.472;2022-11-20T04:48:24;16.60;;;8.60;;
17886;SDS011;9069;52.044;7.472;2022-11-20T04:50:51;15.20;;;8.90;;
17886;SDS011;9069;52.044;7.472;2022-11-20T04:53:18;17.17;;;9.10;;
17886;SDS011;9069;52.044;7.472;2022-11-20T04:55:46;15.60;;;8.40;;
17886;SDS011;9069;52.044;7.472;2022-11-20T04:58:13;17.13;;;8.67;;
17886;SDS011;9069;52.044;7.472;2022-11-20T05:00:39;19.20;;;9.20;;
17886;SDS011;9069;52.044;7.472;2022-11-20T05:03:07;15.53;;;8.37;;
17886;SDS011;9069;52.044;7.472;2022-11-20T05:05:34;14.57;;;8.30;;
17886;SDS011;9069;52.044;7.472;2022-11-20T05:08:00;16.53;;;7.80;;
17886;SDS011;9069;52.044;7.472;2022-11-20T05:10:27;15.67;;;8.17;;
17886;SDS011;9069;52.044;7.472;2022-11-20T05:12:54;14.27;;;8.13;;
17886;SDS011;9069;52.044;7.472;2022-11-20T05:15:22;16.23;;;7.57;;
17886;SDS011;9069;52.044;7.472;2022-11-20T05:17:50;16.67;;;7.87;;
17886;SDS011;9069;52.044;7.472;2022-11-20T05:20:17;16.33;;;8.40;;
17886;SDS011;9069;52.044;7.472;2022-11-20T05:22:44;14.10;;;8.10;;
17886;SDS011;9069;52.044;7.472;2022-11-20T05:25:11;15.67;;;8.00;;
17886;SDS011;9069;52.044;7.472;2022-11-20T05:27:38;16.30;;;7.90;;
17886;SDS011;9069;52.044;7.472;2022-11-20T05:30:05;14.47;;;8.13;;
17886;SDS011;9069;52.044;7.472;2022-11-20T05:32:32;13.37;;;7.20;;
17886;SDS011;9069;52.044;7.472;2022-11-20T05:34:59;17.40;;;8.87;;
17886;SDS011;9069;52.044;7.472;2022-11-20T05:37:25;13.00;;;7.17;;
17886;SDS011;9069;52.044;7.472;2022-11-20T05:39:52;17.97;;;9.47;;
17886;SDS011;9069;52.044;7.472;2022-11-20T05:42:19;14.47;;;7.97;;
17886;SDS011;9069;52.044;7.472;2022-11-20T05:47:25;16.23;;;8.43;;
17886;SDS011;9069;52.044;7.472;2022-11-20T05:49:53;15.83;;;8.07;;
17886;SDS011;9069;52.044;7.472;2022-11-20T05:52:20;14.87;;;8.47;;
17886;SDS011;9069;52.044;7.472;2022-11-20T05:54:47;15.83;;;9.20;;
17886;SDS011;9069;52.044;7.472;2022-11-20T05:57:13;16.13;;;8.77;;
17886;SDS011;9069;52.044;7.472;2022-11-20T05:59:40;15.33;;;8.57;;
17886;SDS011;9069;52.044;7.472;2022-11-20T06:02:07;15.83;;;8.47;;
17886;SDS011;9069;52.044;7.472;2022-11-20T06:04:34;20.23;;;9.00;;
17886;SDS011;9069;52.044;7.472;2022-11-20T06:07:00;21.17;;;8.53;;
17886;SDS011;9069;52.044;7.472;2022-11-20T06:09:27;17.70;;;8.33;;
17886;SDS011;9069;52.044;7.472;2022-11-20T06:11:54;17.10;;;9.10;;
17886;SDS011;9069;52.044;7.472;2022-11-20T06:14:20;16.63;;;8.53;;
17886;SDS011;9069;52.044;7.472;2022-11-20T06:16:47;13.60;;;8.73;;
17886;SDS011;9069;52.044;7.472;2022-11-20T06:19:13;17.07;;;8.30;;
17886;SDS011;9069;52.044;7.472;2022-11-20T06:21:41;15.97;;;8.93;;
17886;SDS011;9069;52.044;7.472;2022-11-20T06:24:10;16.70;;;9.23;;
17886;SDS011;9069;52.044;7.472;2022-11-20T06:26:37;16.07;;;8.77;;
17886;SDS011;9069;52.044;7.472;2022-11-20T06:29:04;17.20;;;9.07;;
17886;SDS011;9069;52.044;7.472;2022-11-20T06:31:30;19.20;;;9.43;;
17886;SDS011;9069;52.044;7.472;2022-11-20T06:34:00;17.37;;;9.93;;
17886;SDS011;9069;52.044;7.472;2022-11-20T06:36:27;18.43;;;9.60;;
17886;SDS011;9069;52.044;7.472;2022-11-20T06:38:54;17.63;;;9.50;;
17886;SDS011;9069;52.044;7.472;2022-11-20T06:41:21;18.30;;;8.80;;
17886;SDS011;9069;52.044;7.472;2022-11-20T06:43:49;17.93;;;8.50;;
17886;SDS011;9069;52.044;7.472;2022-11-20T06:46:17;14.73;;;8.33;;
17886;SDS011;9069;52.044;7.472;2022-11-20T06:48:45;17.93;;;8.83;;
17886;SDS011;9069;52.044;7.472;2022-11-20T06:51:13;18.03;;;9.10;;
17886;SDS011;9069;52.044;7.472;2022-11-20T06:53:40;16.20;;;8.57;;
17886;SDS011;9069;52.044;7.472;2022-11-20T06:56:07;15.70;;;8.47;;
17886;SDS011;9069;52.044;7.472;2022-11-20T06:58:34;16.80;;;8.77;;
17886;SDS011;9069;52.044;7.472;2022-11-20T07:01:03;19.93;;;9.80;;
17886;SDS011;9069;52.044;7.472;2022-11-20T07:03:32;19.93;;;9.97;;
17886;SDS011;9069;52.044;7.472;2022-11-20T07:05:59;18.60;;;9.27;;
17886;SDS011;9069;52.044;7.472;2022-11-20T07:08:27;21.40;;;9.83;;
17886;SDS011;9069;52.044;7.472;2022-11-20T07:10:56;24.27;;;10.37;;
17886;SDS011;9069;52.044;7.472;2022-11-20T07:13:27;25.70;;;11.33;;
17886;SDS011;9069;52.044;7.472;2022-11-20T07:15:55;28.43;;;11.80;;
17886;SDS011;9069;52.044;7.472;2022-11-20T07:18:26;27.00;;;12.10;;
17886;SDS011;9069;52.044;7.472;2022-11-20T07:20:53;21.57;;;9.80;;
17886;SDS011;9069;52.044;7.472;2022-11-20T07:23:19;26.57;;;9.27;;
17886;SDS011;9069;52.044;7.472;2022-11-20T07:25:46;20.80;;;8.83;;
17886;SDS011;9069;52.044;7.472;2022-11-20T07:28:12;19.27;;;9.60;;
17886;SDS011;9069;52.044;7.472;2022-11-20T07:30:39;19.17;;;8.53;;
17886;SDS011;9069;52.044;7.472;2022-11-20T07:33:06;21.57;;;8.57;;
17886;SDS011;9069;52.044;7.472;2022-11-20T07:35:33;17.90;;;8.57;;
17886;SDS011;9069;52.044;7.472;2022-11-20T07:37:59;20.37;;;9.13;;
17886;SDS011;9069;52.044;7.472;2022-11-20T07:40:26;17.63;;;8.87;;
17886;SDS011;9069;52.044;7.472;2022-11-20T07:42:54;18.43;;;8.83;;
17886;SDS011;9069;52.044;7.472;2022-11-20T07:45:22;19.97;;;10.10;;
17886;SDS011;9069;52.044;7.472;2022-11-20T07:47:50;23.20;;;9.23;;
17886;SDS011;9069;52.044;7.472;2022-11-20T07:50:17;20.83;;;9.27;;
17886;SDS011;9069;52.044;7.472;2022-11-20T07:52:45;20.80;;;9.47;;
17886;SDS011;9069;52.044;7.472;2022-11-20T07:55:12;22.50;;;9.03;;
17886;SDS011;9069;52.044;7.472;2022-11-20T07:57:39;28.97;;;9.97;;
17886;SDS011;9069;52.044;7.472;2022-11-20T08:00:06;31.50;;;9.93;;
17886;SDS011;9069;52.044;7.472;2022-11-20T08:02:38;27.50;;;11.07;;
17886;SDS011;9069;52.044;7.472;2022-11-20T08:05:06;24.37;;;10.47;;
17886;SDS011;9069;52.044;7.472;2022-11-20T08:07:40;20.42;;;9.20;;
17886;SDS011;9069;52.044;7.472;2022-11-20T08:10:10;25.92;;;11.50;;
17886;SDS011;9069;52.044;7.472;2022-11-20T08:12:49;28.50;;;11.93;;
17886;SDS011;9069;52.044;7.472;2022-11-20T08:15:36;27.33;;;10.37;;
17886;SDS011;9069;52.044;7.472;2022-11-20T08:18:08;28.20;;;10.50;;
17886;SDS011;9069;52.044;7.472;2022-11-20T08:20:57;29.07;;;10.90;;
17886;SDS011;9069;52.044;7.472;2022-11-20T08:23:27;47.07;;;13.80;;
17886;SDS011;9069;52.044;7.472;2022-11-20T08:25:54;36.37;;;11.10;;
17886;SDS011;9069;52.044;7.472;2022-11-20T08:28:21;48.87;;;12.00;;
17886;SDS011;9069;52.044;7.472;2022-11-20T08:30:48;43.60;;;14.00;;
17886;SDS011;9069;52.044;7.472;2022-11-20T08:33:15;40.53;;;14.25;;
17886;SDS011;9069;52.044;7.472;2022-11-20T08:35:43;41.87;;;14.10;;
17886;SDS011;9069;52.044;7.472;2022-11-20T08:38:10;42.90;;;15.10;;
17886;SDS011;9069;52.044;7.472;2022-11-20T08:40:36;50.20;;;13.57;;
17886;SDS011;9069;52.044;7.472;2022-11-20T08:43:03;35.93;;;12.10;;
17886;SDS011;9069;52.044;7.472;2022-11-20T08:45:30;29.87;;;11.87;;
17886;SDS011;9069;52.044;7.472;2022-11-20T08:48:01;34.50;;;13.33;;
17886;SDS011;9069;52.044;7.472;2022-11-20T08:50:28;30.70;;;12.03;;
17886;SDS011;9069;52.044;7.472;2022-11-20T08:53:04;46.10;;;13.47;;
17886;SDS011;9069;52.044;7.472;2022-11-20T08:55:31;33.97;;;12.23;;
17886;SDS011;9069;52.044;7.472;2022-11-20T08:57:58;31.00;;;12.30;;
17886;SDS011;9069;52.044;7.472;2022-11-20T09:00:30;28.60;;;12.38;;
17886;SDS011;9069;52.044;7.472;2022-11-20T09:02:56;35.22;;;13.15;;
17886;SDS011;9069;52.044;7.472;2022-11-20T09:05:24;28.27;;;12.55;;
17886;SDS011;9069;52.044;7.472;2022-11-20T09:07:51;34.45;;;13.88;;
17886;SDS011;9069;52.044;7.472;2022-11-20T09:10:17;34.35;;;14.00;;
17886;SDS011;9069;52.044;7.472;2022-11-20T09:12:50;33.50;;;14.30;;
17886;SDS011;9069;52.044;7.472;2022-11-20T09:15:17;32.77;;;14.23;;
17886;SDS011;9069;52.044;7.472;2022-11-20T09:17:54;42.45;;;15.10;;
17886;SDS011;9069;52.044;7.472;2022-11-20T09:20:27;42.08;;;15.52;;
17886;SDS011;9069;52.044;7.472;2022-11-20T09:22:55;31.73;;;15.15;;
17886;SDS011;9069;52.044;7.472;2022-11-20T09:25:22;31.63;;;14.32;;
17886;SDS011;9069;52.044;7.472;2022-11-20T09:27:56;29.55;;;14.15;;
17886;SDS011;9069;52.044;7.472;2022-11-20T09:30:23;31.02;;;13.95;;
17886;SDS011;9069;52.044;7.472;2022-11-20T09:32:51;26.63;;;14.15;;
17886;SDS011;9069;52.044;7.472;2022-11-20T09:35:17;24.15;;;13.23;;
17886;SDS011;9069;52.044;7.472;2022-11-20T09:37:44;26.48;;;14.23;;
17886;SDS011;9069;52.044;7.472;2022-11-20T09:40:24;23.15;;;13.23;;
17886;SDS011;9069;52.044;7.472;2022-11-20T09:43:01;23.13;;;12.85;;
17886;SDS011;9069;52.044;7.472;2022-11-20T09:54:39;20.80;;;13.10;;
17886;SDS011;9069;52.044;7.472;2022-11-20T09:57:20;21.65;;;13.18;;
17886;SDS011;9069;52.044;7.472;2022-11-20T09:59:56;18.20;;;11.23;;
17886;SDS011;9069;52.044;7.472;2022-11-20T10:04:59;19.90;;;12.15;;
17886;SDS011;9069;52.044;7.472;2022-11-20T10:08:08;20.13;;;11.85;;
17886;SDS011;9069;52.044;7.472;2022-11-20T10:10:42;22.00;;;11.30;;
17886;SDS011;9069;52.044;7.472;2022-11-20T10:13:25;18.75;;;11.02;;
17886;SDS011;9069;52.044;7.472;2022-11-20T10:21:41;17.33;;;9.68;;
17886;SDS011;9069;52.044;7.472;2022-11-20T10:30:14;23.38;;;12.50;;
17886;SDS011;9069;52.044;7.472;2022-11-20T10:32:47;22.15;;;13.18;;
17886;SDS011;9069;52.044;7.472;2022-11-20T10:35:21;23.50;;;12.65;;
17886;SDS011;9069;52.044;7.472;2022-11-20T10:38:10;18.38;;;10.93;;
17886;SDS011;9069;52.044;7.472;2022-11-20T10:40:43;18.95;;;11.10;;
17886;SDS011;9069;52.044;7.472;2022-11-20T10:43:19;21.33;;;12.32;;
17886;SDS011;9069;52.044;7.472;2022-11-20T10:45:58;21.08;;;11.75;;
17886;SDS011;9069;52.044;7.472;2022-11-20T10:48:30;21.52;;;12.40;;
17886;SDS011;9069;52.044;7.472;2022-11-20T11:01:39;20.52;;;10.63;;
17886;SDS011;9069;52.044;7.472;2022-11-20T11:04:43;23.73;;;12.43;;
17886;SDS011;9069;52.044;7.472;2022-11-20T11:07:23;19.98;;;11.57;;
17886;SDS011;9069;52.044;7.472;2022-11-20T11:09:54;20.40;;;11.07;;
17886;SDS011;9069;52.044;7.472;2022-11-20T11:12:23;18.58;;;10.98;;
17886;SDS011;9069;52.044;7.472;2022-11-20T11:14:53;19.70;;;11.05;;
17886;SDS011;9069;52.044;7.472;2022-11-20T11:17:28;17.98;;;10.63;;
17886;SDS011;9069;52.044;7.472;2022-11-20T11:22:50;28.95;;;13.93;;
17886;SDS011;9069;52.044;7.472;2022-11-20T11:25:26;17.85;;;10.40;;
17886;SDS011;9069;52.044;7.472;2022-11-20T11:27:54;19.30;;;11.13;;
17886;SDS011;9069;52.044;7.472;2022-11-20T11:30:23;20.90;;;11.77;;
17886;SDS011;9069;52.044;7.472;2022-11-20T11:33:02;24.27;;;12.43;;
17886;SDS011;9069;52.044;7.472;2022-11-20T11:35:30;26.85;;;12.80;;
17886;SDS011;9069;52.044;7.472;2022-11-20T11:38:07;23.05;;;11.98;;
17886;SDS011;9069;52.044;7.472;2022-11-20T11:40:40;20.35;;;10.90;;
17886;SDS011;9069;52.044;7.472;2022-11-20T11:43:15;19.73;;;10.90;;
17886;SDS011;9069;52.044;7.472;2022-11-20T11:46:05;17.73;;;9.38;;
17886;SDS011;9069;52.044;7.472;2022-11-20T11:49:01;18.38;;;9.52;;
17886;SDS011;9069;52.044;7.472;2022-11-20T11:54:08;15.20;;;7.97;;
17886;SDS011;9069;52.044;7.472;2022-11-20T11:56:43;11.40;;;6.00;;
17886;SDS011;9069;52.044;7.472;2022-11-20T11:59:12;10.45;;;6.03;;
17886;SDS011;9069;52.044;7.472;2022-11-20T12:01:50;10.13;;;6.45;;
17886;SDS011;9069;52.044;7.472;2022-11-20T12:04:44;10.50;;;6.05;;
17886;SDS011;9069;52.044;7.472;2022-11-20T12:07:20;9.07;;;5.45;;
17886;SDS011;9069;52.044;7.472;2022-11-20T12:10:15;10.57;;;6.15;;
17886;SDS011;9069;52.044;7.472;2022-11-20T12:12:53;12.48;;;6.85;;
17886;SDS011;9069;52.044;7.472;2022-11-20T12:15:32;11.15;;;6.47;;
17886;SDS011;9069;52.044;7.472;2022-11-20T12:18:00;10.40;;;6.90;;
17886;SDS011;9069;52.044;7.472;2022-11-20T12:20:29;13.17;;;7.53;;
17886;SDS011;9069;52.044;7.472;2022-11-20T12:23:25;13.00;;;7.50;;
17886;SDS011;9069;52.044;7.472;2022-11-20T12:26:04;10.98;;;6.78;;
17886;SDS011;9069;52.044;7.472;2022-11-20T12:31:48;15.95;;;8.35;;
17886;SDS011;9069;52.044;7.472;2022-11-20T12:34:32;12.82;;;8.10;;
17886;SDS011;9069;52.044;7.472;2022-11-20T12:37:28;13.32;;;7.80;;
17886;SDS011;9069;52.044;7.472;2022-11-20T12:39:58;16.13;;;7.40;;
17886;SDS011;9069;52.044;7.472;2022-11-20T12:42:48;14.20;;;7.22;;
17886;SDS011;9069;52.044;7.472;2022-11-20T12:54:21;17.42;;;8.45;;
17886;SDS011;9069;52.044;7.472;2022-11-20T12:57:11;14.65;;;8.85;;
17886;SDS011;9069;52.044;7.472;2022-11-20T12:59:51;16.58;;;9.02;;
17886;SDS011;9069;52.044;7.472;2022-11-20T13:05:37;19.50;;;9.13;;
17886;SDS011;9069;52.044;7.472;2022-11-20T13:08:34;17.08;;;9.52;;
17886;SDS011;9069;52.044;7.472;2022-11-20T13:11:14;14.98;;;8.32;;
17886;SDS011;9069;52.044;7.472;2022-11-20T13:19:09;17.20;;;10.48;;
17886;SDS011;9069;52.044;7.472;2022-11-20T13:21:40;16.73;;;9.70;;
17886;SDS011;9069;52.044;7.472;2022-11-20T13:26:45;21.27;;;10.98;;
17886;SDS011;9069;52.044;7.472;2022-11-20T13:29:16;17.23;;;9.88;;
17886;SDS011;9069;52.044;7.472;2022-11-20T13:31:45;13.93;;;8.77;;
17886;SDS011;9069;52.044;7.472;2022-11-20T13:34:14;18.80;;;9.73;;
17886;SDS011;9069;52.044;7.472;2022-11-20T13:36:50;14.93;;;8.70;;
17886;SDS011;9069;52.044;7.472;2022-11-20T13:41:57;17.95;;;9.90;;
17886;SDS011;9069;52.044;7.472;2022-11-20T13:44:38;17.90;;;9.65;;
17886;SDS011;9069;52.044;7.472;2022-11-20T13:47:20;18.10;;;9.80;;
17886;SDS011;9069;52.044;7.472;2022-11-20T13:49:49;15.85;;;9.20;;
17886;SDS011;9069;52.044;7.472;2022-11-20T13:58:21;21.63;;;9.95;;
17886;SDS011;9069;52.044;7.472;2022-11-20T14:01:08;20.88;;;10.40;;
17886;SDS011;9069;52.044;7.472;2022-11-20T14:03:40;20.63;;;10.23;;
17886;SDS011;9069;52.044;7.472;2022-11-20T14:06:31;21.80;;;10.35;;
17886;SDS011;9069;52.044;7.472;2022-11-20T14:09:00;17.60;;;9.95;;
17886;SDS011;9069;52.044;7.472;2022-11-20T14:11:28;18.67;;;10.55;;
17886;SDS011;9069;52.044;7.472;2022-11-20T14:14:00;20.88;;;10.50;;
17886;SDS011;9069;52.044;7.472;2022-11-20T14:16:28;19.33;;;10.32;;
17886;SDS011;9069;52.044;7.472;2022-11-20T14:18:57;19.60;;;10.70;;
17886;SDS011;9069;52.044;7.472;2022-11-20T14:21:43;19.85;;;10.55;;
17886;SDS011;9069;52.044;7.472;2022-11-20T14:24:10;20.83;;;10.85;;
17886;SDS011;9069;52.044;7.472;2022-11-20T14:26:42;18.55;;;10.65;;
17886;SDS011;9069;52.044;7.472;2022-11-20T14:29:13;24.77;;;11.98;;
17886;SDS011;9069;52.044;7.472;2022-11-20T14:31:44;23.90;;;13.20;;
17886;SDS011;9069;52.044;7.472;2022-11-20T14:34:23;28.65;;;13.85;;
17886;SDS011;9069;52.044;7.472;2022-11-20T14:36:52;26.00;;;13.13;;
17886;SDS011;9069;52.044;7.472;2022-11-20T14:39:29;29.25;;;14.27;;
17886;SDS011;9069;52.044;7.472;2022-11-20T14:41:58;32.53;;;15.80;;
17886;SDS011;9069;52.044;7.472;2022-11-20T14:44:29;31.08;;;15.93;;
17886;SDS011;9069;52.044;7.472;2022-11-20T14:46:59;39.40;;;16.35;;
17886;SDS011;9069;52.044;7.472;2022-11-20T14:49:29;35.58;;;15.93;;
17886;SDS011;9069;52.044;7.472;2022-11-20T14:52:00;34.22;;;16.23;;
17886;SDS011;9069;52.044;7.472;2022-11-20T14:54:42;35.35;;;17.42;;
17886;SDS011;9069;52.044;7.472;2022-11-20T14:57:19;37.20;;;18.92;;
17886;SDS011;9069;52.044;7.472;2022-11-20T14:59:48;36.60;;;18.25;;
17886;SDS011;9069;52.044;7.472;2022-11-20T15:02:15;32.17;;;16.58;;
17886;SDS011;9069;52.044;7.472;2022-11-20T15:04:46;36.17;;;17.23;;
17886;SDS011;9069;52.044;7.472;2022-11-20T15:07:24;33.67;;;16.60;;
17886;SDS011;9069;52.044;7.472;2022-11-20T15:09:59;36.63;;;17.30;;
17886;SDS011;9069;52.044;7.472;2022-11-20T15:12:31;39.20;;;18.05;;
17886;SDS011;9069;52.044;7.472;2022-11-20T15:15:01;38.25;;;19.83;;
17886;SDS011;9069;52.044;7.472;2022-11-20T15:17:30;31.20;;;16.77;;
17886;SDS011;9069;52.044;7.472;2022-11-20T15:19:57;35.13;;;16.75;;
17886;SDS011;9069;52.044;7.472;2022-11-20T15:22:28;35.28;;;16.77;;
17886;SDS011;9069;52.044;7.472;2022-11-20T15:24:54;32.72;;;16.33;;
17886;SDS011;9069;52.044;7.472;2022-11-20T15:27:21;31.00;;;16.02;;
17886;SDS011;9069;52.044;7.472;2022-11-20T15:29:48;31.90;;;16.05;;
17886;SDS011;9069;52.044;7.472;2022-11-20T15:32:14;28.38;;;15.18;;
17886;SDS011;9069;52.044;7.472;2022-11-20T15:34:41;31.13;;;16.17;;
17886;SDS011;9069;52.044;7.472;2022-11-20T15:37:08;30.95;;;16.58;;
17886;SDS011;9069;52.044;7.472;2022-11-20T15:39:34;31.05;;;16.70;;
17886;SDS011;9069;52.044;7.472;2022-11-20T15:42:01;32.33;;;16.80;;
17886;SDS011;9069;52.044;7.472;2022-11-20T15:44:28;30.20;;;14.88;;
17886;SDS011;9069;52.044;7.472;2022-11-20T15:46:54;32.85;;;17.13;;
17886;SDS011;9069;52.044;7.472;2022-11-20T15:49:21;31.65;;;15.80;;
17886;SDS011;9069;52.044;7.472;2022-11-20T15:51:49;33.92;;;17.50;;
17886;SDS011;9069;52.044;7.472;2022-11-20T15:54:20;38.10;;;18.60;;
17886;SDS011;9069;52.044;7.472;2022-11-20T15:56:49;32.35;;;17.35;;
17886;SDS011;9069;52.044;7.472;2022-11-20T15:59:18;32.47;;;15.52;;
17886;SDS011;9069;52.044;7.472;2022-11-20T16:01:45;31.60;;;16.10;;
17886;SDS011;9069;52.044;7.472;2022-11-20T16:04:13;30.35;;;16.40;;
17886;SDS011;9069;52.044;7.472;2022-11-20T16:06:41;30.80;;;16.23;;
17886;SDS011;9069;52.044;7.472;2022-11-20T16:09:08;28.17;;;15.50;;
17886;SDS011;9069;52.044;7.472;2022-11-20T16:11:35;27.73;;;14.65;;
17886;SDS011;9069;52.044;7.472;2022-11-20T16:14:03;32.78;;;13.75;;
17886;SDS011;9069;52.044;7.472;2022-11-20T16:16:50;29.88;;;15.27;;
17886;SDS011;9069;52.044;7.472;2022-11-20T16:19:17;32.67;;;16.10;;
17886;SDS011;9069;52.044;7.472;2022-11-20T16:21:44;31.70;;;15.45;;
17886;SDS011;9069;52.044;7.472;2022-11-20T16:24:11;32.42;;;15.57;;
17886;SDS011;9069;52.044;7.472;2022-11-20T16:26:39;29.52;;;14.50;;
17886;SDS011;9069;52.044;7.472;2022-11-20T16:29:07;26.48;;;13.18;;
17886;SDS011;9069;52.044;7.472;2022-11-20T16:31:34;25.75;;;13.73;;